logo dgac
Miércoles 19 de Junio del 2024
Buscar por aerodromo o helipuerto
Ingrese nombre de aeródromo, localidad o designador OACI:
TAF: TAF SCJO 191110Z 1912/1924 VRB02KT 9999 BKN035 TN03/1913Z TX09/1919Z BECMG 1913/1915 05007KT BECMG 1917/1919 SCT025 OVC035
TAF del 19/06/2024 a las 11:10 UTC
Para mayor información visite www.meteochile.gob.cl
Período de validez: desde el 19 a las 12:00 UTC hasta el 19 a las 24:00 UTC
Viento: dirección variable, velocidad 2 nudos
Visibilidad: 10 km o más
Nubes: Nublado a 3500 pies sobre el nivel del aeródromo
Temperatura mínima: 3ºC el 19 a las 13:00 UTC
Temperatura máxima: 9ºC el 19 a las 19:00 UTC
Se espera un cambio entre las 13:00 UTC del 19 y las 15:00 UTC del 19, :
Viento: dirección 050 grados, velocidad 7 nudos
Se espera un cambio entre las 17:00 UTC del 19 y las 19:00 UTC del 19, :
Nubes: Nubosidad parcial a 2500 pies sobre el nivel del aeródromo
Nubes: Cubierto a 3500 pies sobre el nivel del aeródromo